Aviation Digital Data Service (ADDS)

Output produced by METARs form (0428 UTC 26 May 2018)
found at http://www.aviationweather.gov/adds/metars/
 
TAF SABE 252300Z 2600/2624 36010KT CAVOK TX20/2618Z TN14/2610Z 
       
TAF SACO 252300Z 2600/2624 02015KT CAVOK TX24/2618Z TN08/2610Z 
     BECMG 2609/2612 02010KT CAVOK 
     BECMG 2615/2618 02020KT 9999 SCT030
       
TAF SAZY 252300Z 2600/2624 27015KT CAVOK TX08/2617Z TNM01/2611Z 
     BECMG 2605/2608 29010KT 7000 -RADZ BKN020 BKN070 
     BECMG 2613/2616 25020KT 9999 SCT030
       
TAF SAAP 252300Z 2600/2624 36003KT CAVOK TX22/2618Z TN07/2610Z 
     BECMG 2520/2522 04010KT 
     BECMG 2605/2608 07005KT 2000 BR NSC 
     BECMG 2611/2614 02010KT CAVOK 
     BECMG 2621/2623 09005KT
       
TAF SAAR 252300Z 2600/2624 02005KT CAVOK TX21/2618Z TN06/2610Z 
     BECMG 2606/2608 5000 BR NSC 
     PROB40 2608/2611 0700 FG 
     BECMG 2612/2614 02015KT 7000 NSC 
     BECMG 2615/2616 CAVOK 
       
TAF SAAV 252300Z 2600/2624 07005KT CAVOK TX22/2618Z TN05/2610Z 
     BECMG 2606/2608 3000 BR NSC 
     TEMPO 2609/2612 1500 +BR 
     BECMG 2613/2614 02010KT CAVOK 
     BECMG 2621/2623 09005KT
       
TAF SABE 252300Z 2600/2624 36010KT CAVOK TX20/2618Z TN14/2610Z 
       
TAF SACO 252300Z 2600/2624 02015KT CAVOK TX24/2618Z TN08/2610Z 
     BECMG 2609/2612 02010KT CAVOK 
     BECMG 2615/2618 02020KT 9999 SCT030
       
TAF SADF 252300Z 2600/2624 34010KT CAVOK TX20/2618Z TN08/2609Z 
     BECMG 2607/2609 02010KT
       
TAF SADP 252300Z 2600/2624 05005KT CAVOK TX21/2619Z TN07/2610Z 
     BECMG 2604/2606 02010KT 
     BECMG 2620/2622 05005KT
       
TAF SAEZ 252300Z 2600/2624 02005KT CAVOK TX21/2618Z TN09/2610Z 
     BECMG 2605/2608 5000 BR NSC 
     BECMG 2610/2612 02010KT CAVOK 
     BECMG 2617/2619 05005KT
       
TAF SAME 252300Z 2600/2624 VRB03KT CAVOK TN06/2610Z TX21/2620Z 
     BECMG 2612/2614 16010KT 9999 SCT040
       
TAF SANR 252300Z 2600/2624 VRB03KT CAVOK TX25/2618Z TN09/2610Z 
     BECMG 2606/2609 05005KT 5000 BR SCT012 BKN020 
     BECMG 2612/2615 VRB03KT 9999 SCT025 BKN060
       
TAF SANT 252300Z 2600/2624 34005KT 5000 FU NSC TX25/2618Z TN09/2610Z 
     BECMG 2606/2609 VRB03KT 5000 BR FU SCT012 BKN020 
     BECMG 2612/2615 21005KT 6000 SCT025 BKN060
       
TAF SARE 252300Z 2600/2624 VRB03KT CAVOK TX25/2618Z TN09/2610Z 
     PROB40 2607/2611 3000 BR NSC
       
TAF SARF 252300Z 2600/2624 07005KT CAVOK TX25/2618Z TN09/2610Z
       
TAF SARI 252300Z 2600/2624 VRB03KT CAVOK TX25/2618Z TN12/2610Z 
     PROB40 2607/2611 3000 BR NSC
       
TAF SARP 252300Z 2600/2624 VRB03KT CAVOK TX25/2618Z TN10/2610Z
       
TAF SASA 252300Z 2600/2624 05005KT 9999 SCT025 BKN060 TX20/2618Z TN08/2610Z 
     BECMG 2606/2609 21005KT 2000 -DZ BR BKN008 BKN020 
     BECMG 2612/2615 VRB03KT 5000 DZ BKN010 BKN020 
     BECMG 2618/2621 05010KT 9999 BKN020
       
TAF SASJ 252300Z 2600/2624 VRB03KT 9999 SCT030 TX22/2618Z TN09/2610Z 
     BECMG 2606/2609 21005KT 2000 BR -DZ BKN008 OVC020 
     BECMG 2612/2615 VRB03KT 5000 DZ BKN012 OVC020 
     BECMG 2618/2621 05010KT 9999 BKN020
       
TAF SAVC 251700Z 2518/2618 34015G25KT 9999 FEW030 BKN080 TX20/2519Z TN08/2612Z 
     BECMG 2520/2522 32025G35KT SCT030 BKN070 
     BECMG 2600/2602 29030G45KT 8000 DU 
     BECMG 2616/2618 27035G55KT
       
TAF AMD SAWE 252320Z 2600/2624 VRB07KT 2000 BR BKN008 BKN020 30018KT 9999 BKN020 BKN030 TX06/2619Z TN02/2624 
     TEMPO 2612/2618 30025KT 
     BECMG 2618/2620 27020G35KT
       
TAF AMD SAWG 260120Z 2602/2624 34025G35KT CAVOK TX10/2612Z TN03/2624Z 
     BECMG 2605/2607 32020KT 9999 BKN040 
     BECMG 2613/2515 28030G45KT BKN015
       
TAF SAWH 252300Z 2600/2624 VRB07KT 9999 BKN020 BKN030 TX07/2615Z TN02/2624Z 
     TEMPO 2600/2606 5000 RA 
     BECMG 2618/2620 23025KT BKN012 BKN020 
     TEMPO 2618/2624 2000 RASN OVC010
       
TAF SAZB 252300Z 2600/2624 34015KT CAVOK TX17/2619Z TN09/2610Z 
     TEMPO 2608/2611 34010KT 
     BECMG 2618/2620 27010KT
       
TAF SAZM 252300Z 2600/2624 34010KT CAVOK TX19/2618Z TN06/2610Z 
     BECMG 2612/2614 34015G25KT 
     BECMG 2621/2623 34010KT 
       
TAF SAZN 252300Z 2600/2624 VRB03KT CAVOK TX18/2619Z TN06/2610Z 
     BECMG 2604/2606 SCT045 BKN060 
     BECMG 2609/2611 25010KT 
     BECMG 2614/2616 SCT020 BKN050 
     PROB30 2616/2620 6000 RADZ
       
TAF SAZR 252300Z 2600/2624 36010KT CAVOK TX18/2619Z TN04/2611Z 
     BECMG 2604/2606 4000 BR NSC 
     TEMPO 2607/2612 0600 FG 
     BECMG 2613/2615 32005KT 9999 BKN015 
     BECMG 2616/2618 25005KT CAVOK
       
TAF SAZS 252300Z 2600/2624 31015KT 9999 BKN035 TX11/2600Z TN04/2610Z 
     BECMG 2601/2603 7000 RADZ BKN025 BKN040 
     BECMG 2615/2617 29020G30KT CAVOK 
     BECMG 2619/2621 29015KT
       
TAF SAZY 252300Z 2600/2624 27015KT CAVOK TX08/2617Z TNM01/2611Z 
     BECMG 2605/2608 29010KT 7000 -RADZ BKN020 BKN070 
     BECMG 2613/2616 25020KT 9999 SCT030
       
TAF SARI 252300Z 2600/2624 VRB03KT CAVOK TX25/2618Z TN12/2610Z 
     PROB40 2607/2611 3000 BR NSC
       
TAF SAZB 252300Z 2600/2624 34015KT CAVOK TX17/2619Z TN09/2610Z 
     TEMPO 2608/2611 34010KT 
     BECMG 2618/2620 27010KT
       
TAF SAVC 251700Z 2518/2618 34015G25KT 9999 FEW030 BKN080 TX20/2519Z TN08/2612Z 
     BECMG 2520/2522 32025G35KT SCT030 BKN070 
     BECMG 2600/2602 29030G45KT 8000 DU 
     BECMG 2616/2618 27035G55KT
       
TAF SADP 252300Z 2600/2624 05005KT CAVOK TX21/2619Z TN07/2610Z 
     BECMG 2604/2606 02010KT 
     BECMG 2620/2622 05005KT
       
TAF SAME 252300Z 2600/2624 VRB03KT CAVOK TN06/2610Z TX21/2620Z 
     BECMG 2612/2614 16010KT 9999 SCT040
       
TAF SARF 252300Z 2600/2624 07005KT CAVOK TX25/2618Z TN09/2610Z
       
TAF SAAP 252300Z 2600/2624 36003KT CAVOK TX22/2618Z TN07/2610Z 
     BECMG 2520/2522 04010KT 
     BECMG 2605/2608 07005KT 2000 BR NSC 
     BECMG 2611/2614 02010KT CAVOK 
     BECMG 2621/2623 09005KT
       
TAF SASJ 252300Z 2600/2624 VRB03KT 9999 SCT030 TX22/2618Z TN09/2610Z 
     BECMG 2606/2609 21005KT 2000 BR -DZ BKN008 OVC020 
     BECMG 2612/2615 VRB03KT 5000 DZ BKN012 OVC020 
     BECMG 2618/2621 05010KT 9999 BKN020
       
TAF SASA 252300Z 2600/2624 05005KT 9999 SCT025 BKN060 TX20/2618Z TN08/2610Z 
     BECMG 2606/2609 21005KT 2000 -DZ BR BKN008 BKN020 
     BECMG 2612/2615 VRB03KT 5000 DZ BKN010 BKN020 
     BECMG 2618/2621 05010KT 9999 BKN020
       
TAF SAZM 252300Z 2600/2624 34010KT CAVOK TX19/2618Z TN06/2610Z 
     BECMG 2612/2614 34015G25KT 
     BECMG 2621/2623 34010KT 
       
TAF SAEZ 252300Z 2600/2624 02005KT CAVOK TX21/2618Z TN09/2610Z 
     BECMG 2605/2608 5000 BR NSC 
     BECMG 2610/2612 02010KT CAVOK 
     BECMG 2617/2619 05005KT
       
TAF SARP 252300Z 2600/2624 VRB03KT CAVOK TX25/2618Z TN10/2610Z
       
TAF SAZN 252300Z 2600/2624 VRB03KT CAVOK TX18/2619Z TN06/2610Z 
     BECMG 2604/2606 SCT045 BKN060 
     BECMG 2609/2611 25010KT 
     BECMG 2614/2616 SCT020 BKN050 
     PROB30 2616/2620 6000 RADZ
       
TAF SARE 252300Z 2600/2624 VRB03KT CAVOK TX25/2618Z TN09/2610Z 
     PROB40 2607/2611 3000 BR NSC
       
TAF AMD SAWG 260120Z 2602/2624 34025G35KT CAVOK TX10/2612Z TN03/2624Z 
     BECMG 2605/2607 32020KT 9999 BKN040 
     BECMG 2613/2515 28030G45KT BKN015
       
TAF AMD SAWE 252320Z 2600/2624 VRB07KT 2000 BR BKN008 BKN020 30018KT 9999 BKN020 BKN030 TX06/2619Z TN02/2624 
     TEMPO 2612/2618 30025KT 
     BECMG 2618/2620 27020G35KT
       
TAF SAAR 252300Z 2600/2624 02005KT CAVOK TX21/2618Z TN06/2610Z 
     BECMG 2606/2608 5000 BR NSC 
     PROB40 2608/2611 0700 FG 
     BECMG 2612/2614 02015KT 7000 NSC 
     BECMG 2615/2616 CAVOK 
       
TAF SAAP 252300Z 2600/2624 36003KT CAVOK TX22/2618Z TN07/2610Z 
     BECMG 2520/2522 04010KT 
     BECMG 2605/2608 07005KT 2000 BR NSC 
     BECMG 2611/2614 02010KT CAVOK 
     BECMG 2621/2623 09005KT
       
TAF SAAR 252300Z 2600/2624 02005KT CAVOK TX21/2618Z TN06/2610Z 
     BECMG 2606/2608 5000 BR NSC 
     PROB40 2608/2611 0700 FG 
     BECMG 2612/2614 02015KT 7000 NSC 
     BECMG 2615/2616 CAVOK 
       
TAF SAAV 252300Z 2600/2624 07005KT CAVOK TX22/2618Z TN05/2610Z 
     BECMG 2606/2608 3000 BR NSC 
     TEMPO 2609/2612 1500 +BR 
     BECMG 2613/2614 02010KT CAVOK 
     BECMG 2621/2623 09005KT
       
TAF SABE 252300Z 2600/2624 36010KT CAVOK TX20/2618Z TN14/2610Z 
       
TAF SACO 252300Z 2600/2624 02015KT CAVOK TX24/2618Z TN08/2610Z 
     BECMG 2609/2612 02010KT CAVOK 
     BECMG 2615/2618 02020KT 9999 SCT030
       
TAF SADF 252300Z 2600/2624 34010KT CAVOK TX20/2618Z TN08/2609Z 
     BECMG 2607/2609 02010KT
       
TAF SADP 252300Z 2600/2624 05005KT CAVOK TX21/2619Z TN07/2610Z 
     BECMG 2604/2606 02010KT 
     BECMG 2620/2622 05005KT
       
TAF SAEZ 252300Z 2600/2624 02005KT CAVOK TX21/2618Z TN09/2610Z 
     BECMG 2605/2608 5000 BR NSC 
     BECMG 2610/2612 02010KT CAVOK 
     BECMG 2617/2619 05005KT
       
TAF SAME 252300Z 2600/2624 VRB03KT CAVOK TN06/2610Z TX21/2620Z 
     BECMG 2612/2614 16010KT 9999 SCT040
       
TAF SANR 252300Z 2600/2624 VRB03KT CAVOK TX25/2618Z TN09/2610Z 
     BECMG 2606/2609 05005KT 5000 BR SCT012 BKN020 
     BECMG 2612/2615 VRB03KT 9999 SCT025 BKN060
       
TAF SANT 252300Z 2600/2624 34005KT 5000 FU NSC TX25/2618Z TN09/2610Z 
     BECMG 2606/2609 VRB03KT 5000 BR FU SCT012 BKN020 
     BECMG 2612/2615 21005KT 6000 SCT025 BKN060
       
TAF SARE 252300Z 2600/2624 VRB03KT CAVOK TX25/2618Z TN09/2610Z 
     PROB40 2607/2611 3000 BR NSC
       
TAF SARF 252300Z 2600/2624 07005KT CAVOK TX25/2618Z TN09/2610Z
       
TAF SARI 252300Z 2600/2624 VRB03KT CAVOK TX25/2618Z TN12/2610Z 
     PROB40 2607/2611 3000 BR NSC
       
TAF SARP 252300Z 2600/2624 VRB03KT CAVOK TX25/2618Z TN10/2610Z
       
TAF SASA 252300Z 2600/2624 05005KT 9999 SCT025 BKN060 TX20/2618Z TN08/2610Z 
     BECMG 2606/2609 21005KT 2000 -DZ BR BKN008 BKN020 
     BECMG 2612/2615 VRB03KT 5000 DZ BKN010 BKN020 
     BECMG 2618/2621 05010KT 9999 BKN020
       
TAF SASJ 252300Z 2600/2624 VRB03KT 9999 SCT030 TX22/2618Z TN09/2610Z 
     BECMG 2606/2609 21005KT 2000 BR -DZ BKN008 OVC020 
     BECMG 2612/2615 VRB03KT 5000 DZ BKN012 OVC020 
     BECMG 2618/2621 05010KT 9999 BKN020
       
TAF SAVC 251700Z 2518/2618 34015G25KT 9999 FEW030 BKN080 TX20/2519Z TN08/2612Z 
     BECMG 2520/2522 32025G35KT SCT030 BKN070 
     BECMG 2600/2602 29030G45KT 8000 DU 
     BECMG 2616/2618 27035G55KT
       
TAF AMD SAWE 252320Z 2600/2624 VRB07KT 2000 BR BKN008 BKN020 30018KT 9999 BKN020 BKN030 TX06/2619Z TN02/2624 
     TEMPO 2612/2618 30025KT 
     BECMG 2618/2620 27020G35KT
       
TAF AMD SAWG 260120Z 2602/2624 34025G35KT CAVOK TX10/2612Z TN03/2624Z 
     BECMG 2605/2607 32020KT 9999 BKN040 
     BECMG 2613/2515 28030G45KT BKN015
       
TAF SAWH 252300Z 2600/2624 VRB07KT 9999 BKN020 BKN030 TX07/2615Z TN02/2624Z 
     TEMPO 2600/2606 5000 RA 
     BECMG 2618/2620 23025KT BKN012 BKN020 
     TEMPO 2618/2624 2000 RASN OVC010
       
TAF SAZB 252300Z 2600/2624 34015KT CAVOK TX17/2619Z TN09/2610Z 
     TEMPO 2608/2611 34010KT 
     BECMG 2618/2620 27010KT
       
TAF SAZM 252300Z 2600/2624 34010KT CAVOK TX19/2618Z TN06/2610Z 
     BECMG 2612/2614 34015G25KT 
     BECMG 2621/2623 34010KT 
       
TAF SAZN 252300Z 2600/2624 VRB03KT CAVOK TX18/2619Z TN06/2610Z 
     BECMG 2604/2606 SCT045 BKN060 
     BECMG 2609/2611 25010KT 
     BECMG 2614/2616 SCT020 BKN050 
     PROB30 2616/2620 6000 RADZ
       
TAF SAZR 252300Z 2600/2624 36010KT CAVOK TX18/2619Z TN04/2611Z 
     BECMG 2604/2606 4000 BR NSC 
     TEMPO 2607/2612 0600 FG 
     BECMG 2613/2615 32005KT 9999 BKN015 
     BECMG 2616/2618 25005KT CAVOK
       
TAF SAZS 252300Z 2600/2624 31015KT 9999 BKN035 TX11/2600Z TN04/2610Z 
     BECMG 2601/2603 7000 RADZ BKN025 BKN040 
     BECMG 2615/2617 29020G30KT CAVOK 
     BECMG 2619/2621 29015KT
       
TAF SAZY 252300Z 2600/2624 27015KT CAVOK TX08/2617Z TNM01/2611Z 
     BECMG 2605/2608 29010KT 7000 -RADZ BKN020 BKN070 
     BECMG 2613/2616 25020KT 9999 SCT030
       
TAF SASA 252300Z 2600/2624 05005KT 9999 SCT025 BKN060 TX20/2618Z TN08/2610Z 
     BECMG 2606/2609 21005KT 2000 -DZ BR BKN008 BKN020 
     BECMG 2612/2615 VRB03KT 5000 DZ BKN010 BKN020 
     BECMG 2618/2621 05010KT 9999 BKN020
       
TAF SAZS 252300Z 2600/2624 31015KT 9999 BKN035 TX11/2600Z TN04/2610Z 
     BECMG 2601/2603 7000 RADZ BKN025 BKN040 
     BECMG 2615/2617 29020G30KT CAVOK 
     BECMG 2619/2621 29015KT
       
TAF SADF 252300Z 2600/2624 34010KT CAVOK TX20/2618Z TN08/2609Z 
     BECMG 2607/2609 02010KT
       
TAF SAAP 252300Z 2600/2624 36003KT CAVOK TX22/2618Z TN07/2610Z 
     BECMG 2520/2522 04010KT 
     BECMG 2605/2608 07005KT 2000 BR NSC 
     BECMG 2611/2614 02010KT CAVOK 
     BECMG 2621/2623 09005KT
       
TAF SAAR 252300Z 2600/2624 02005KT CAVOK TX21/2618Z TN06/2610Z 
     BECMG 2606/2608 5000 BR NSC 
     PROB40 2608/2611 0700 FG 
     BECMG 2612/2614 02015KT 7000 NSC 
     BECMG 2615/2616 CAVOK 
       
TAF SAAV 252300Z 2600/2624 07005KT CAVOK TX22/2618Z TN05/2610Z 
     BECMG 2606/2608 3000 BR NSC 
     TEMPO 2609/2612 1500 +BR 
     BECMG 2613/2614 02010KT CAVOK 
     BECMG 2621/2623 09005KT
       
TAF SABE 252300Z 2600/2624 36010KT CAVOK TX20/2618Z TN14/2610Z 
       
TAF SACO 252300Z 2600/2624 02015KT CAVOK TX24/2618Z TN08/2610Z 
     BECMG 2609/2612 02010KT CAVOK 
     BECMG 2615/2618 02020KT 9999 SCT030
       
TAF SADF 252300Z 2600/2624 34010KT CAVOK TX20/2618Z TN08/2609Z 
     BECMG 2607/2609 02010KT
       
TAF SADP 252300Z 2600/2624 05005KT CAVOK TX21/2619Z TN07/2610Z 
     BECMG 2604/2606 02010KT 
     BECMG 2620/2622 05005KT
       
TAF SAEZ 252300Z 2600/2624 02005KT CAVOK TX21/2618Z TN09/2610Z 
     BECMG 2605/2608 5000 BR NSC 
     BECMG 2610/2612 02010KT CAVOK 
     BECMG 2617/2619 05005KT
       
TAF SAME 252300Z 2600/2624 VRB03KT CAVOK TN06/2610Z TX21/2620Z 
     BECMG 2612/2614 16010KT 9999 SCT040
       
TAF SANR 252300Z 2600/2624 VRB03KT CAVOK TX25/2618Z TN09/2610Z 
     BECMG 2606/2609 05005KT 5000 BR SCT012 BKN020 
     BECMG 2612/2615 VRB03KT 9999 SCT025 BKN060
       
TAF SANT 252300Z 2600/2624 34005KT 5000 FU NSC TX25/2618Z TN09/2610Z 
     BECMG 2606/2609 VRB03KT 5000 BR FU SCT012 BKN020 
     BECMG 2612/2615 21005KT 6000 SCT025 BKN060
       
TAF SARE 252300Z 2600/2624 VRB03KT CAVOK TX25/2618Z TN09/2610Z 
     PROB40 2607/2611 3000 BR NSC
       
TAF SARF 252300Z 2600/2624 07005KT CAVOK TX25/2618Z TN09/2610Z
       
TAF SARI 252300Z 2600/2624 VRB03KT CAVOK TX25/2618Z TN12/2610Z 
     PROB40 2607/2611 3000 BR NSC
       
TAF SARP 252300Z 2600/2624 VRB03KT CAVOK TX25/2618Z TN10/2610Z
       
TAF SASA 252300Z 2600/2624 05005KT 9999 SCT025 BKN060 TX20/2618Z TN08/2610Z 
     BECMG 2606/2609 21005KT 2000 -DZ BR BKN008 BKN020 
     BECMG 2612/2615 VRB03KT 5000 DZ BKN010 BKN020 
     BECMG 2618/2621 05010KT 9999 BKN020
       
TAF SASJ 252300Z 2600/2624 VRB03KT 9999 SCT030 TX22/2618Z TN09/2610Z 
     BECMG 2606/2609 21005KT 2000 BR -DZ BKN008 OVC020 
     BECMG 2612/2615 VRB03KT 5000 DZ BKN012 OVC020 
     BECMG 2618/2621 05010KT 9999 BKN020
       
TAF SAVC 251700Z 2518/2618 34015G25KT 9999 FEW030 BKN080 TX20/2519Z TN08/2612Z 
     BECMG 2520/2522 32025G35KT SCT030 BKN070 
     BECMG 2600/2602 29030G45KT 8000 DU 
     BECMG 2616/2618 27035G55KT
       
TAF AMD SAWE 252320Z 2600/2624 VRB07KT 2000 BR BKN008 BKN020 30018KT 9999 BKN020 BKN030 TX06/2619Z TN02/2624 
     TEMPO 2612/2618 30025KT 
     BECMG 2618/2620 27020G35KT
       
TAF AMD SAWG 260120Z 2602/2624 34025G35KT CAVOK TX10/2612Z TN03/2624Z 
     BECMG 2605/2607 32020KT 9999 BKN040 
     BECMG 2613/2515 28030G45KT BKN015
       
TAF SAWH 252300Z 2600/2624 VRB07KT 9999 BKN020 BKN030 TX07/2615Z TN02/2624Z 
     TEMPO 2600/2606 5000 RA 
     BECMG 2618/2620 23025KT BKN012 BKN020 
     TEMPO 2618/2624 2000 RASN OVC010
       
TAF SAZB 252300Z 2600/2624 34015KT CAVOK TX17/2619Z TN09/2610Z 
     TEMPO 2608/2611 34010KT 
     BECMG 2618/2620 27010KT
       
TAF SAZM 252300Z 2600/2624 34010KT CAVOK TX19/2618Z TN06/2610Z 
     BECMG 2612/2614 34015G25KT 
     BECMG 2621/2623 34010KT 
       
TAF SAZN 252300Z 2600/2624 VRB03KT CAVOK TX18/2619Z TN06/2610Z 
     BECMG 2604/2606 SCT045 BKN060 
     BECMG 2609/2611 25010KT 
     BECMG 2614/2616 SCT020 BKN050 
     PROB30 2616/2620 6000 RADZ
       
TAF SAZR 252300Z 2600/2624 36010KT CAVOK TX18/2619Z TN04/2611Z 
     BECMG 2604/2606 4000 BR NSC 
     TEMPO 2607/2612 0600 FG 
     BECMG 2613/2615 32005KT 9999 BKN015 
     BECMG 2616/2618 25005KT CAVOK
       
TAF SAZS 252300Z 2600/2624 31015KT 9999 BKN035 TX11/2600Z TN04/2610Z 
     BECMG 2601/2603 7000 RADZ BKN025 BKN040 
     BECMG 2615/2617 29020G30KT CAVOK 
     BECMG 2619/2621 29015KT
       
TAF SAZY 252300Z 2600/2624 27015KT CAVOK TX08/2617Z TNM01/2611Z 
     BECMG 2605/2608 29010KT 7000 -RADZ BKN020 BKN070 
     BECMG 2613/2616 25020KT 9999 SCT030
       
TAF SAZR 252300Z 2600/2624 36010KT CAVOK TX18/2619Z TN04/2611Z 
     BECMG 2604/2606 4000 BR NSC 
     TEMPO 2607/2612 0600 FG 
     BECMG 2613/2615 32005KT 9999 BKN015 
     BECMG 2616/2618 25005KT CAVOK
       
TAF SAAV 252300Z 2600/2624 07005KT CAVOK TX22/2618Z TN05/2610Z 
     BECMG 2606/2608 3000 BR NSC 
     TEMPO 2609/2612 1500 +BR 
     BECMG 2613/2614 02010KT CAVOK 
     BECMG 2621/2623 09005KT
       
TAF SANT 252300Z 2600/2624 34005KT 5000 FU NSC TX25/2618Z TN09/2610Z 
     BECMG 2606/2609 VRB03KT 5000 BR FU SCT012 BKN020 
     BECMG 2612/2615 21005KT 6000 SCT025 BKN060
       
TAF SAWH 252300Z 2600/2624 VRB07KT 9999 BKN020 BKN030 TX07/2615Z TN02/2624Z 
     TEMPO 2600/2606 5000 RA 
     BECMG 2618/2620 23025KT BKN012 BKN020 
     TEMPO 2618/2624 2000 RASN OVC010